Hakuryoumaru No.15 — JD2439 — position and weather

sailwx.info

Track history (hours):
 
Tides and Currents Weather Stations Pressure Air Temp Water Temp Dewpoint Dewpoint Depression Visibility Wind Speed Wind Dir Waves Ship Positions

Hakuryoumaru No.15

Last reported at 2016-May-01 11:12 UTC. Time now 2016-May-05 21:53 UTC.
Position N 34°08' E 135°03'.

Length 80 m; draft 5.4 m.

Type: Tanker. MMSI: 431000243.

Date/timePositionNaut miles runAvg speedWind from/ knotsBaromVisibWave heightAir tempDewpointWater temp
2016-May-01 11:12N 34°08' E 135°03'4 0.7
2016-May-01 05:27N 34°07' E 135°08'2 1.7
2016-May-01 04:33N 34°09' E 135°07'2 1.9
2016-May-01 03:31N 34°09' E 135°09'0 0.0
2016-May-01 02:31N 34°09' E 135°09'0 0.1
2016-May-01 01:31N 34°09' E 135°09'0 0.0
2016-May-01 00:31N 34°09' E 135°09'0 0.0
2016-Apr-30 23:31N 34°09' E 135°09'0 0.1
2016-Apr-30 22:28N 34°09' E 135°09'0 0.0
2016-Apr-30 21:31N 34°09' E 135°09'0 0.0
2016-Apr-30 20:28N 34°09' E 135°09'0 0.0
2016-Apr-30 19:28N 34°09' E 135°09'0 0.0
2016-Apr-30 18:31N 34°09' E 135°09'0 0.0
2016-Apr-30 17:25N 34°09' E 135°09'0 0.0
2016-Apr-30 16:28N 34°09' E 135°09'0 0.1
2016-Apr-30 15:28N 34°09' E 135°09'0 0.0
2016-Apr-30 14:28N 34°09' E 135°09'0 0.0
2016-Apr-30 13:16N 34°09' E 135°09'0 0.0
2016-Apr-30 12:25N 34°09' E 135°09'0 0.0
2016-Apr-30 11:31N 34°09' E 135°09'0 0.0
2016-Apr-30 10:25N 34°09' E 135°09'0 0.0
2016-Apr-30 09:32N 34°09' E 135°09'1110.5
2016-Apr-30 08:32N 34°19' E 135°05'1313.0
2016-Apr-30 07:32N 34°29' E 135°15'8 8.6
2016-Apr-30 06:33N 34°32' E 135°24'0 0.0
2016-Apr-30 05:33N 34°32' E 135°24'0 0.0
2016-Apr-30 04:33N 34°32' E 135°24'0 0.0
2016-Apr-30 03:33N 34°32' E 135°24'2 1.9
2016-Apr-30 02:31N 34°33' E 135°23'1212.5
2016-Apr-30 01:33N 34°34' E 135°08'  
2016-Apr-24 07:24N 34°37' E 135°01'8 9.0
2016-Apr-24 06:33N 34°35' E 135°10'1211.5
2016-Apr-24 05:33N 34°32' E 135°24'1 0.1
2016-Apr-23 23:31N 34°32' E 135°24'3 2.8
2016-Apr-23 22:21N 34°32' E 135°20'0 0.0
2016-Apr-23 21:33N 34°32' E 135°20'0 0.0
2016-Apr-23 19:33N 34°32' E 135°20'0 0.0
2016-Apr-23 18:09N 34°32' E 135°20'0 0.0
2016-Apr-23 17:09N 34°32' E 135°20'0 0.0
2016-Apr-23 16:33N 34°32' E 135°20'0 0.0
2016-Apr-23 13:15N 34°32' E 135°20'0 0.0
2016-Apr-23 12:33N 34°32' E 135°20'0 0.0
2016-Apr-23 11:33N 34°32' E 135°20'0 0.0
2016-Apr-23 10:27N 34°32' E 135°20'0 0.0
2016-Apr-23 09:33N 34°32' E 135°20'0 0.0
2016-Apr-23 08:21N 34°32' E 135°20'0 0.1
2016-Apr-23 07:33N 34°32' E 135°20'0 0.0
2016-Apr-23 06:27N 34°32' E 135°20'0 0.0
2016-Apr-23 04:27N 34°32' E 135°20'6 6.6
2016-Apr-23 03:33N 34°38' E 135°22'3 2.7
2016-Apr-23 02:33N 34°39' E 135°25'0 0.0
2016-Apr-23 01:34N 34°39' E 135°25'0 0.0
2016-Apr-23 00:34N 34°39' E 135°25'0 0.0
2016-Apr-22 23:33N 34°39' E 135°25'6 5.9
2016-Apr-22 22:33N 34°36' E 135°19'6 6.1
2016-Apr-22 21:33N 34°32' E 135°14'1211.9
2016-Apr-22 20:33N 34°23' E 135°05'1210.8
2016-Apr-22 19:27N 34°11' E 134°59'  
Track history (hours):
 
Tides and Currents Weather Stations Pressure Air Temp Water Temp Dewpoint Dewpoint Depression Visibility Wind Speed Wind Dir Waves Ship Positions

Hakuryoumaru No.15

Last reported at 2016-May-01 11:12 UTC. Time now 2016-May-05 21:53 UTC.
Position N 34°08' E 135°03'.

Length 80 m; draft 5.4 m.

Type: Tanker. MMSI: 431000243.

Date/timePositionNaut miles runAvg speedWind from/ knotsBaromVisibWave heightAir tempDewpointWater temp
2016-May-01 11:12N 34°08' E 135°03'4 0.7
2016-May-01 05:27N 34°07' E 135°08'2 1.7
2016-May-01 04:33N 34°09' E 135°07'2 1.9
2016-May-01 03:31N 34°09' E 135°09'0 0.0
2016-May-01 02:31N 34°09' E 135°09'0 0.1
2016-May-01 01:31N 34°09' E 135°09'0 0.0
2016-May-01 00:31N 34°09' E 135°09'0 0.0
2016-Apr-30 23:31N 34°09' E 135°09'0 0.1
2016-Apr-30 22:28N 34°09' E 135°09'0 0.0
2016-Apr-30 21:31N 34°09' E 135°09'0 0.0
2016-Apr-30 20:28N 34°09' E 135°09'0 0.0
2016-Apr-30 19:28N 34°09' E 135°09'0 0.0
2016-Apr-30 18:31N 34°09' E 135°09'0 0.0
2016-Apr-30 17:25N 34°09' E 135°09'0 0.0
2016-Apr-30 16:28N 34°09' E 135°09'0 0.1
2016-Apr-30 15:28N 34°09' E 135°09'0 0.0
2016-Apr-30 14:28N 34°09' E 135°09'0 0.0
2016-Apr-30 13:16N 34°09' E 135°09'0 0.0
2016-Apr-30 12:25N 34°09' E 135°09'0 0.0
2016-Apr-30 11:31N 34°09' E 135°09'0 0.0
2016-Apr-30 10:25N 34°09' E 135°09'0 0.0
2016-Apr-30 09:32N 34°09' E 135°09'1110.5
2016-Apr-30 08:32N 34°19' E 135°05'1313.0
2016-Apr-30 07:32N 34°29' E 135°15'8 8.6
2016-Apr-30 06:33N 34°32' E 135°24'0 0.0
2016-Apr-30 05:33N 34°32' E 135°24'0 0.0
2016-Apr-30 04:33N 34°32' E 135°24'0 0.0
2016-Apr-30 03:33N 34°32' E 135°24'2 1.9
2016-Apr-30 02:31N 34°33' E 135°23'1212.5
2016-Apr-30 01:33N 34°34' E 135°08'  
2016-Apr-24 07:24N 34°37' E 135°01'8 9.0
2016-Apr-24 06:33N 34°35' E 135°10'1211.5
2016-Apr-24 05:33N 34°32' E 135°24'1 0.1
2016-Apr-23 23:31N 34°32' E 135°24'3 2.8
2016-Apr-23 22:21N 34°32' E 135°20'0 0.0
2016-Apr-23 21:33N 34°32' E 135°20'0 0.0
2016-Apr-23 19:33N 34°32' E 135°20'0 0.0
2016-Apr-23 18:09N 34°32' E 135°20'0 0.0
2016-Apr-23 17:09N 34°32' E 135°20'0 0.0
2016-Apr-23 16:33N 34°32' E 135°20'0 0.0
2016-Apr-23 13:15N 34°32' E 135°20'0 0.0
2016-Apr-23 12:33N 34°32' E 135°20'0 0.0
2016-Apr-23 11:33N 34°32' E 135°20'0 0.0
2016-Apr-23 10:27N 34°32' E 135°20'0 0.0
2016-Apr-23 09:33N 34°32' E 135°20'0 0.0
2016-Apr-23 08:21N 34°32' E 135°20'0 0.1
2016-Apr-23 07:33N 34°32' E 135°20'0 0.0
2016-Apr-23 06:27N 34°32' E 135°20'0 0.0
2016-Apr-23 04:27N 34°32' E 135°20'6 6.6
2016-Apr-23 03:33N 34°38' E 135°22'3 2.7
2016-Apr-23 02:33N 34°39' E 135°25'0 0.0
2016-Apr-23 01:34N 34°39' E 135°25'0 0.0
2016-Apr-23 00:34N 34°39' E 135°25'0 0.0
2016-Apr-22 23:33N 34°39' E 135°25'6 5.9
2016-Apr-22 22:33N 34°36' E 135°19'6 6.1
2016-Apr-22 21:33N 34°32' E 135°14'1211.9
2016-Apr-22 20:33N 34°23' E 135°05'1210.8
2016-Apr-22 19:27N 34°11' E 134°59'  

Dump ship's entire track history